createdAt,value
2018-11-01T00:01:06.870Z,100711.11
2018-11-01T00:03:39.099Z,100712.69
2018-11-01T00:06:11.456Z,100719.92
2018-11-01T00:08:41.120Z,100709.62
2018-11-01T00:11:10.853Z,100705.44
2018-11-01T00:13:45.236Z,100697.39
2018-11-01T00:16:15.399Z,100701.28
2018-11-01T00:18:45.126Z,100698.90
2018-11-01T00:21:15.567Z,100603.47
2018-11-01T00:23:46.049Z,100703.99
2018-11-01T00:26:16.314Z,100702.30
2018-11-01T00:28:46.451Z,100706.66
2018-11-01T00:31:17.763Z,100720.17
2018-11-01T00:33:47.771Z,100720.88
2018-11-01T00:36:18.213Z,100723.86
2018-11-01T00:38:54.470Z,100722.88
2018-11-01T00:41:28.579Z,100731.57
2018-11-01T00:44:00.298Z,100684.27
2018-11-01T00:46:35.527Z,100724.69
2018-11-01T00:49:04.691Z,100721.58
2018-11-01T00:51:37.201Z,100724.50
2018-11-01T00:54:08.044Z,100716.48
2018-11-01T00:56:39.288Z,100721.09
2018-11-01T00:59:08.482Z,100713.80
2018-11-01T01:01:40.537Z,100707.57
2018-11-01T01:04:09.942Z,100716.82
2018-11-01T01:06:39.158Z,100717.09
2018-11-01T01:09:11.443Z,100715.67
2018-11-01T01:11:41.740Z,100718.55
2018-11-01T01:14:11.754Z,100714.59
2018-11-01T01:16:48.729Z,100717.12
2018-11-01T01:19:18.228Z,100722.51
2018-11-01T01:21:49.314Z,100722.74
2018-11-01T01:24:22.099Z,100718.91
2018-11-01T01:26:53.750Z,100716.38
2018-11-01T01:29:23.346Z,100717.36
2018-11-01T01:31:59.051Z,100722.74
2018-11-01T01:34:29.228Z,100720.24
2018-11-01T01:37:00.309Z,100724.16
2018-11-01T01:39:30.711Z,100715.75
2018-11-01T01:42:01.498Z,100719.00
2018-11-01T01:44:32.652Z,100718.41
2018-11-01T01:47:03.063Z,100718.06
2018-11-01T01:49:34.215Z,100707.16
2018-11-01T01:52:07.575Z,100698.67
2018-11-01T01:54:39.196Z,100689.95
2018-11-01T01:57:09.851Z,100693.86
2018-11-01T01:59:41.669Z,100685.86
2018-11-01T02:02:14.300Z,100687.77
2018-11-01T02:04:46.767Z,100686.88
2018-11-01T02:09:57.424Z,100678.57
2018-11-01T02:12:27.876Z,100671.98
2018-11-01T02:15:00.356Z,100670.92
2018-11-01T02:17:31.795Z,100668.92
2018-11-01T02:20:02.293Z,100668.13
2018-11-01T02:22:33.449Z,100672.61
2018-11-01T02:28:41.380Z,100680.22
2018-11-01T02:31:16.426Z,100674.84
2018-11-01T02:33:47.618Z,100672.97
2018-11-01T02:36:19.432Z,100672.73
2018-11-01T02:38:49.424Z,100682.41
2018-11-01T02:41:20.105Z,100678.84
2018-11-01T02:43:49.995Z,100683.23
2018-11-01T02:46:21.570Z,100683.41
2018-11-01T02:48:52.285Z,100684.03
2018-11-01T02:51:23.158Z,100675.89
2018-11-01T02:53:54.074Z,100677.41
2018-11-01T02:56:24.030Z,100678.00
2018-11-01T02:59:00.694Z,100673.19
2018-11-01T03:01:32.767Z,100685.47
2018-11-01T03:04:03.305Z,100683.29
2018-11-01T03:06:34.489Z,100680.25
2018-11-01T03:09:05.929Z,100681.59
2018-11-01T03:11:43.443Z,100678.25
2018-11-01T03:14:19.055Z,100679.09
2018-11-01T03:19:29.708Z,100676.75
2018-11-01T03:21:59.478Z,100668.92
2018-11-01T03:24:34.490Z,100668.92
2018-11-01T03:27:05.705Z,100666.34
2018-11-01T03:29:36.277Z,100659.45
2018-11-01T03:32:06.537Z,100658.38
2018-11-01T03:34:37.342Z,100657.31
2018-11-01T03:37:07.384Z,100658.20
2018-11-01T03:39:37.695Z,100659.94
2018-11-01T03:42:10.638Z,100646.45
2018-11-01T03:44:41.795Z,100638.62
2018-11-01T03:47:13.199Z,100647.91
2018-11-01T03:49:49.380Z,100648.64
2018-11-01T03:52:29.420Z,100641.08
2018-11-01T03:55:01.567Z,100559.67
2018-11-01T03:57:35.429Z,100619.23
2018-11-01T04:00:16.413Z,100614.31
2018-11-01T04:02:52.354Z,100611.34
2018-11-01T04:05:23.574Z,100607.16
2018-11-01T04:07:53.649Z,100608.00
2018-11-01T04:10:23.983Z,100598.53
2018-11-01T04:12:58.605Z,100598.51
2018-11-01T04:15:28.996Z,100594.52
2018-11-01T04:17:59.306Z,100600.92
2018-11-01T04:20:29.155Z,100611.67
2018-11-01T04:22:59.332Z,100542.81
2018-11-01T04:25:30.075Z,100626.01
2018-11-01T04:28:00.766Z,100613.86
2018-11-01T04:30:38.187Z,100614.62
2018-11-01T04:33:07.409Z,100625.99
2018-11-01T04:35:37.669Z,100623.55
2018-11-01T04:38:07.300Z,100621.84
2018-11-01T04:40:36.493Z,100629.34
2018-11-01T04:43:05.612Z,100636.06
2018-11-01T04:45:35.216Z,100628.16
2018-11-01T04:48:04.753Z,100630.16
2018-11-01T04:50:34.138Z,100624.56
2018-11-01T04:53:05.321Z,100619.88
2018-11-01T04:55:34.396Z,100627.25
2018-11-01T04:58:04.377Z,100627.84
2018-11-01T05:00:34.044Z,100622.78
2018-11-01T05:03:03.762Z,100618.78
2018-11-01T05:05:33.438Z,100611.06
2018-11-01T05:08:02.717Z,100597.20
2018-11-01T05:10:33.968Z,100597.32
2018-11-01T05:13:03.947Z,100583.29
2018-11-01T05:15:34.465Z,100582.25
2018-11-01T05:18:06.026Z,100591.22
2018-11-01T05:20:36.205Z,100585.55
2018-11-01T05:23:06.946Z,100590.05
2018-11-01T05:25:38.517Z,100592.91
2018-11-01T05:28:18.414Z,100603.37
2018-11-01T05:30:51.066Z,100601.55
2018-11-01T05:33:21.772Z,100599.09
2018-11-01T05:35:57.301Z,100598.02
2018-11-01T05:38:34.916Z,100554.45
2018-11-01T05:41:05.332Z,100612.05
2018-11-01T05:43:34.831Z,100619.48
2018-11-01T05:46:05.382Z,100549.19
2018-11-01T05:48:36.656Z,100626.33
2018-11-01T05:51:08.790Z,100615.68
2018-11-01T05:53:38.775Z,100612.41
2018-11-01T05:56:08.435Z,100606.52
2018-11-01T05:58:37.847Z,100608.41
2018-11-01T06:01:28.936Z,100613.60
2018-11-01T06:03:59.529Z,100620.74
2018-11-01T06:06:31.613Z,100617.86
2018-11-01T06:09:03.707Z,100616.04
2018-11-01T06:11:36.309Z,100609.52
2018-11-01T06:14:07.561Z,100604.13
2018-11-01T06:19:17.376Z,100606.55
2018-11-01T06:21:47.745Z,100596.05
2018-11-01T06:24:22.866Z,100598.36
2018-11-01T06:26:53.381Z,100595.05
2018-11-01T06:29:23.581Z,100611.53
2018-11-01T06:31:53.354Z,100620.98
2018-11-01T06:34:32.328Z,100628.94
2018-11-01T06:37:02.184Z,100633.78
2018-11-01T06:39:32.529Z,100641.58
2018-11-01T06:42:02.726Z,100642.91
2018-11-01T06:44:36.284Z,100647.31
2018-11-01T06:47:15.270Z,100646.55
2018-11-01T06:49:47.262Z,100653.04
2018-11-01T06:52:19.216Z,100655.59
2018-11-01T06:54:53.486Z,100660.86
2018-11-01T06:57:24.724Z,100676.12
2018-11-01T07:00:11.510Z,100668.02
2018-11-01T07:02:43.255Z,100679.92
2018-11-01T07:05:14.200Z,100668.92
2018-11-01T07:07:46.826Z,100669.52
2018-11-01T07:10:18.398Z,100671.95
2018-11-01T07:12:48.617Z,100674.23
2018-11-01T07:15:18.841Z,100666.92
2018-11-01T07:20:24.459Z,100670.73
2018-11-01T07:22:54.618Z,100670.94
2018-11-01T07:25:24.395Z,100670.51
2018-11-01T07:27:54.557Z,100670.66
2018-11-01T07:30:24.391Z,100654.98
2018-11-01T07:32:53.639Z,100659.39
2018-11-01T07:35:24.365Z,100657.61
2018-11-01T07:37:57.500Z,100658.16
2018-11-01T07:40:27.529Z,100647.63
2018-11-01T07:42:57.268Z,100644.68
2018-11-01T07:45:26.510Z,100634.45
2018-11-01T07:47:55.672Z,100638.60
2018-11-01T07:50:25.172Z,100632.02
2018-11-01T07:52:55.044Z,100632.68
2018-11-01T07:55:26.173Z,100624.55
2018-11-01T07:57:56.451Z,100623.70
2018-11-01T08:00:37.218Z,100627.84
2018-11-01T08:03:09.561Z,100616.11
2018-11-01T08:05:39.675Z,100619.04
2018-11-01T08:08:11.506Z,100618.50
2018-11-01T08:10:41.565Z,100612.80
2018-11-01T08:13:10.717Z,100613.37
2018-11-01T08:15:42.520Z,100608.78
2018-11-01T08:18:11.783Z,100609.03
2018-11-01T08:20:43.130Z,100597.25
2018-11-01T08:23:13.518Z,100599.17
2018-11-01T08:25:48.127Z,100602.59
2018-11-01T08:28:17.341Z,100606.77
2018-11-01T08:30:46.816Z,100606.36
2018-11-01T08:33:18.311Z,100602.59
2018-11-01T08:35:47.422Z,100598.67
2018-11-01T08:38:22.230Z,100597.16
2018-11-01T08:40:52.362Z,100590.20
2018-11-01T08:43:25.131Z,100585.02
2018-11-01T08:45:54.196Z,100582.70
2018-11-01T08:48:23.422Z,100583.33
2018-11-01T08:50:53.300Z,100578.27
2018-11-01T08:53:22.869Z,100582.35
2018-11-01T08:55:53.596Z,100572.11
2018-11-01T08:58:26.427Z,100579.46
2018-11-01T09:00:59.252Z,100575.05
2018-11-01T09:03:35.244Z,100571.46
2018-11-01T09:06:12.468Z,100566.02
2018-11-01T09:08:48.491Z,100567.94
2018-11-01T09:11:20.810Z,100564.32
2018-11-01T09:13:50.150Z,100571.71
2018-11-01T09:16:20.378Z,100578.16
2018-11-01T09:18:55.934Z,100575.67
2018-11-01T09:21:26.407Z,100579.48
2018-11-01T09:23:55.804Z,100577.05
2018-11-01T09:26:25.916Z,100577.88
2018-11-01T09:28:55.971Z,100572.00
2018-11-01T09:31:25.844Z,100571.52
2018-11-01T09:33:55.222Z,100571.91
2018-11-01T09:36:27.697Z,100594.27
2018-11-01T09:38:58.073Z,100614.64
2018-11-01T09:41:27.914Z,100608.62
2018-11-01T09:44:00.423Z,100618.08
2018-11-01T09:46:30.252Z,100594.31
2018-11-01T09:48:59.299Z,100590.88
2018-11-01T09:51:29.361Z,100591.02
2018-11-01T09:53:58.515Z,100588.58
2018-11-01T09:56:28.107Z,100598.09
2018-11-01T10:01:35.749Z,100582.86
2018-11-01T10:04:06.257Z,100590.75
2018-11-01T10:06:35.530Z,100597.17
2018-11-01T10:09:05.887Z,100588.38
2018-11-01T10:11:45.663Z,100591.32
2018-11-01T10:14:16.887Z,100588.08
2018-11-01T10:16:54.724Z,100593.22
2018-11-01T10:19:27.776Z,100600.61
2018-11-01T10:21:57.874Z,100603.72
2018-11-01T10:24:28.347Z,100597.77
2018-11-01T10:27:01.108Z,100585.38
2018-11-01T10:29:35.238Z,100585.96
2018-11-01T10:32:06.877Z,100575.41
2018-11-01T10:34:38.888Z,100578.14
2018-11-01T10:37:10.668Z,100579.47
2018-11-01T10:39:42.703Z,100587.70
2018-11-01T10:42:13.107Z,100604.41
2018-11-01T10:44:43.936Z,100590.61
2018-11-01T10:47:14.258Z,100592.17
2018-11-01T10:49:43.286Z,100591.58
2018-11-01T10:52:12.883Z,100582.39
2018-11-01T10:54:42.722Z,100582.89
2018-11-01T10:57:15.927Z,100577.84
2018-11-01T10:59:46.524Z,100584.34
2018-11-01T11:02:17.290Z,100580.70
2018-11-01T11:04:47.266Z,100574.42
2018-11-01T11:07:17.848Z,100585.87
2018-11-01T11:09:50.753Z,100564.75
2018-11-01T11:12:20.386Z,100563.77
2018-11-01T11:14:51.864Z,100559.92
2018-11-01T11:17:21.275Z,100558.85
2018-11-01T11:19:57.802Z,100556.76
2018-11-01T11:22:27.921Z,100538.86
2018-11-01T11:24:57.097Z,100495.14
2018-11-01T11:27:26.571Z,100535.72
2018-11-01T11:29:56.305Z,100530.66
2018-11-01T11:32:29.289Z,100534.66
2018-11-01T11:34:59.807Z,100522.63
2018-11-01T11:37:31.324Z,100525.43
2018-11-01T11:40:01.044Z,100526.23
2018-11-01T11:42:31.597Z,100515.18
2018-11-01T11:45:01.347Z,100514.47
2018-11-01T11:47:31.427Z,100514.77
2018-11-01T11:50:00.438Z,100521.41
2018-11-01T11:52:30.966Z,100523.23
2018-11-01T11:55:01.746Z,100526.33
2018-11-01T11:57:31.688Z,100529.74
2018-11-01T12:00:05.273Z,100538.78
2018-11-01T12:02:35.056Z,100540.03
2018-11-01T12:05:04.733Z,100543.28
2018-11-01T12:07:38.800Z,100555.23
2018-11-01T12:10:12.494Z,100549.82
2018-11-01T12:12:47.221Z,100543.42
2018-11-01T12:15:19.837Z,100551.81
2018-11-01T12:17:51.224Z,100557.85
2018-11-01T12:20:25.536Z,100559.24
2018-11-01T12:22:55.147Z,100561.77
2018-11-01T12:25:35.492Z,100568.35
2018-11-01T12:28:07.653Z,100548.73
2018-11-01T12:30:37.280Z,100550.75
2018-11-01T12:33:13.058Z,100551.71
2018-11-01T12:35:50.989Z,100536.33
2018-11-01T12:38:20.543Z,100494.95
2018-11-01T12:40:53.875Z,100527.83
2018-11-01T12:43:23.813Z,100524.98
2018-11-01T12:45:55.180Z,100523.98
2018-11-01T12:48:39.088Z,100521.63
2018-11-01T12:51:08.566Z,100524.66
2018-11-01T12:53:38.449Z,100519.27
2018-11-01T12:56:11.089Z,100511.77
2018-11-01T12:58:42.230Z,100514.94
2018-11-01T13:01:12.484Z,100516.96
2018-11-01T13:03:46.699Z,100518.45
2018-11-01T13:06:17.900Z,100528.34
2018-11-01T13:08:47.977Z,100516.31
2018-11-01T13:11:18.043Z,100530.52
2018-11-01T13:13:48.829Z,100525.84
2018-11-01T13:16:19.443Z,100530.02
2018-11-01T13:18:54.690Z,100533.20
2018-11-01T13:21:26.476Z,100530.69
2018-11-01T13:23:55.904Z,100541.41
2018-11-01T13:26:25.906Z,100544.05
2018-11-01T13:28:56.205Z,100538.73
2018-11-01T13:31:26.110Z,100542.24
2018-11-01T13:33:56.866Z,100543.92
2018-11-01T13:36:29.685Z,100546.42
2018-11-01T13:38:59.702Z,100548.19
2018-11-01T13:41:29.579Z,100552.20
2018-11-01T13:43:59.712Z,100552.55
2018-11-01T13:46:28.873Z,100555.04
2018-11-01T13:49:00.631Z,100551.70
2018-11-01T13:51:31.900Z,100551.16
2018-11-01T13:54:01.976Z,100559.97
2018-11-01T13:56:32.320Z,100559.13
2018-11-01T13:59:03.081Z,100563.99
2018-11-01T14:01:32.702Z,100561.31
2018-11-01T14:04:06.912Z,100560.12
2018-11-01T14:06:37.832Z,100558.83
2018-11-01T14:09:08.943Z,100561.30
2018-11-01T14:11:38.545Z,100557.03
2018-11-01T14:14:10.194Z,100567.14
2018-11-01T14:16:39.697Z,100572.70
2018-11-01T14:19:09.903Z,100576.88
2018-11-01T14:21:39.749Z,100573.41
2018-11-01T14:24:09.793Z,100568.80
2018-11-01T14:26:40.091Z,100573.06
2018-11-01T14:29:12.817Z,100572.05
2018-11-01T14:31:43.991Z,100575.81
2018-11-01T14:34:13.196Z,100572.38
2018-11-01T14:36:42.311Z,100577.56
2018-11-01T14:39:13.963Z,100577.81
2018-11-01T14:41:46.427Z,100585.41
2018-11-01T14:44:16.376Z,100587.72
2018-11-01T14:46:46.471Z,100584.83
2018-11-01T14:49:26.259Z,100584.43
2018-11-01T14:54:31.849Z,100583.61
2018-11-01T14:57:01.733Z,100587.89
2018-11-01T14:59:32.300Z,100589.53
2018-11-01T15:02:03.991Z,100593.79
2018-11-01T15:04:35.648Z,100596.34
2018-11-01T15:07:04.885Z,100593.45
2018-11-01T15:09:35.356Z,100591.95
2018-11-01T15:12:04.652Z,100593.20
2018-11-01T15:14:34.913Z,100586.02
2018-11-01T15:17:05.718Z,100527.59
2018-11-01T15:19:37.143Z,100585.13
2018-11-01T15:22:11.979Z,100583.67
2018-11-01T15:24:42.881Z,100582.97
2018-11-01T15:27:14.948Z,100581.02
2018-11-01T15:29:45.278Z,100580.94
2018-11-01T15:32:19.788Z,100568.28
2018-11-01T15:34:49.296Z,100568.86
2018-11-01T15:37:21.072Z,100569.25
2018-11-01T15:39:50.387Z,100556.73
2018-11-01T15:42:21.818Z,100548.84
2018-11-01T15:44:54.112Z,100553.86
2018-11-01T15:47:28.617Z,100554.21
2018-11-01T15:49:57.807Z,100548.82
2018-11-01T15:52:26.981Z,100549.11
2018-11-01T15:54:57.440Z,100548.23
2018-11-01T15:57:28.774Z,100544.13
2018-11-01T16:00:11.076Z,100547.38
2018-11-01T16:05:28.177Z,100542.09
2018-11-01T16:08:02.486Z,100541.08
2018-11-01T16:10:35.157Z,100535.63
2018-11-01T16:13:07.986Z,100530.67
2018-11-01T16:15:52.941Z,100530.91
2018-11-01T16:18:25.624Z,100513.82
2018-11-01T16:20:59.416Z,100508.19
2018-11-01T16:23:29.373Z,100532.40
2018-11-01T16:26:01.022Z,100523.45
2018-11-01T16:28:30.244Z,100520.38
2018-11-01T16:30:59.500Z,100527.05
2018-11-01T16:33:30.771Z,100514.94
2018-11-01T16:36:07.469Z,100512.19
2018-11-01T16:38:43.739Z,100526.14
2018-11-01T16:41:13.245Z,100530.53
2018-11-01T16:43:44.069Z,100526.19
2018-11-01T16:46:13.277Z,100522.20
2018-11-01T16:48:42.808Z,100528.87
2018-11-01T16:51:13.109Z,100526.64
2018-11-01T16:53:44.325Z,100527.75
2018-11-01T16:56:15.925Z,100530.71
2018-11-01T16:58:45.196Z,100537.67
2018-11-01T17:01:17.355Z,100526.58
2018-11-01T17:03:46.449Z,100525.36
2018-11-01T17:06:17.053Z,100535.75
2018-11-01T17:08:46.830Z,100538.30
2018-11-01T17:11:21.214Z,100543.99
2018-11-01T17:13:52.322Z,100543.39
2018-11-01T17:16:23.800Z,100536.41
2018-11-01T17:18:54.663Z,100541.34
2018-11-01T17:24:28.390Z,100556.77
2018-11-01T17:27:00.149Z,100553.00
2018-11-01T17:29:37.427Z,100557.61
2018-11-01T17:32:12.215Z,100561.09
2018-11-01T17:34:42.348Z,100559.09
2018-11-01T17:37:14.037Z,100561.36
2018-11-01T17:39:46.091Z,100570.95
2018-11-01T17:42:17.075Z,100579.80
2018-11-01T17:44:47.208Z,100576.37
2018-11-01T17:47:17.393Z,100582.30
2018-11-01T17:49:46.970Z,100587.41
2018-11-01T17:52:16.910Z,100585.23
2018-11-01T17:54:46.613Z,100580.96
2018-11-01T17:57:17.740Z,100586.00
2018-11-01T17:59:52.226Z,100590.74
2018-11-01T18:02:34.004Z,100585.19
2018-11-01T18:05:09.885Z,100596.58
2018-11-01T18:07:44.117Z,100596.30
2018-11-01T18:10:16.282Z,100591.97
2018-11-01T18:19:59.154Z,100597.48
2018-11-01T18:22:29.727Z,100589.01
2018-11-01T18:24:59.276Z,100594.14
2018-11-01T18:27:34.508Z,100584.31
2018-11-01T18:30:25.656Z,100590.43
2018-11-01T18:32:57.510Z,100589.37
2018-11-01T18:35:26.591Z,100590.35
2018-11-01T18:37:57.384Z,100586.17
2018-11-01T18:40:29.369Z,100590.91
2018-11-01T18:43:00.574Z,100588.56
2018-11-01T18:45:32.157Z,100586.14
2018-11-01T18:48:04.574Z,100596.03
2018-11-01T18:50:35.376Z,100602.95
2018-11-01T18:53:12.085Z,100596.53
2018-11-01T18:55:44.248Z,100606.11
2018-11-01T18:58:16.542Z,100545.63
2018-11-01T19:00:51.716Z,100598.42
2018-11-01T19:03:29.018Z,100597.58
2018-11-01T19:06:06.349Z,100600.28
2018-11-01T19:08:38.514Z,100608.57
2018-11-01T19:11:13.274Z,100606.17
2018-11-01T19:13:43.290Z,100612.74
2018-11-01T19:16:14.418Z,100614.27
2018-11-01T19:18:47.185Z,100610.55
2018-11-01T19:21:16.502Z,100623.20
2018-11-01T19:23:45.837Z,100623.87
2018-11-01T19:26:16.725Z,100620.48
2018-11-01T19:28:48.167Z,100625.30
2018-11-01T19:31:30.329Z,100626.38
2018-11-01T19:34:01.322Z,100623.75
2018-11-01T19:36:36.647Z,100622.95
2018-11-01T19:39:13.268Z,100631.42
2018-11-01T19:41:46.106Z,100629.12
2018-11-01T19:44:22.920Z,100632.02
2018-11-01T19:46:54.565Z,100628.55
2018-11-01T19:49:35.769Z,100628.80
2018-11-01T19:52:17.868Z,100636.41
2018-11-01T19:54:50.717Z,100633.70
2018-11-01T19:57:21.934Z,100633.58
2018-11-01T19:59:53.435Z,100632.15
2018-11-01T20:02:25.567Z,100640.77
2018-11-01T20:04:56.357Z,100647.13
2018-11-01T20:07:28.158Z,100644.30
2018-11-01T20:10:02.152Z,100636.50
2018-11-01T20:12:32.516Z,100637.44
2018-11-01T20:15:04.307Z,100641.20
2018-11-01T20:17:38.084Z,100640.48
2018-11-01T20:20:10.559Z,100642.24
2018-11-01T20:22:41.322Z,100646.54
2018-11-01T20:25:11.542Z,100644.09
2018-11-01T20:27:40.788Z,100653.21
2018-11-01T20:30:25.508Z,100652.14
2018-11-01T20:32:56.109Z,100644.48
2018-11-01T20:35:28.801Z,100634.45
2018-11-01T20:38:00.762Z,100646.01
2018-11-01T20:40:30.401Z,100643.61
2018-11-01T20:43:01.446Z,100659.90
2018-11-01T20:45:31.048Z,100667.73
2018-11-01T20:48:02.327Z,100666.06
2018-11-01T20:50:33.801Z,100669.14
2018-11-01T20:53:03.329Z,100655.17
2018-11-01T20:55:32.519Z,100651.03
2018-11-01T20:58:04.232Z,100648.28
2018-11-01T21:00:42.448Z,100642.33
2018-11-01T21:03:13.326Z,100653.42
2018-11-01T21:05:45.401Z,100666.06
2018-11-01T21:08:25.109Z,100668.90
2018-11-01T21:10:55.966Z,100661.77
2018-11-01T21:13:31.646Z,100681.23
2018-11-01T21:16:03.484Z,100676.11
2018-11-01T21:18:36.856Z,100666.72
2018-11-01T21:21:08.180Z,100664.33
2018-11-01T21:23:42.940Z,100669.48
2018-11-01T21:26:21.770Z,100666.42
2018-11-01T21:28:56.152Z,100668.03
2018-11-01T21:31:27.577Z,100664.47
2018-11-01T21:33:59.786Z,100675.95
2018-11-01T21:36:34.838Z,100675.80
2018-11-01T21:39:23.868Z,100677.72
2018-11-01T21:41:55.845Z,100677.19
2018-11-01T21:44:41.556Z,100684.63
2018-11-01T21:47:13.134Z,100682.52
2018-11-01T21:49:44.175Z,100687.38
2018-11-01T21:52:13.796Z,100690.13
2018-11-01T21:54:47.438Z,100691.42
2018-11-01T21:57:18.327Z,100694.98
2018-11-01T21:59:51.138Z,100695.59
2018-11-01T22:02:29.824Z,100699.97
2018-11-01T22:05:01.772Z,100700.27
2018-11-01T22:07:34.394Z,100704.15
2018-11-01T22:10:07.054Z,100707.00
2018-11-01T22:12:37.358Z,100709.58
2018-11-01T22:15:10.443Z,100714.22
2018-11-01T22:17:45.498Z,100717.34
2018-11-01T22:20:27.013Z,100721.63
2018-11-01T22:22:58.648Z,100722.36
2018-11-01T22:25:33.185Z,100720.95
2018-11-01T22:28:02.853Z,100731.23
2018-11-01T22:30:34.403Z,100728.66
2018-11-01T22:33:13.549Z,100731.81
2018-11-01T22:35:43.005Z,100731.54
2018-11-01T22:38:31.357Z,100738.77
2018-11-01T22:41:01.981Z,100736.75
2018-11-01T22:43:34.718Z,100740.45
2018-11-01T22:46:11.377Z,100746.05
2018-11-01T22:48:41.423Z,100748.54
2018-11-01T22:51:11.056Z,100745.52
2018-11-01T22:53:40.970Z,100749.47
2018-11-01T22:56:14.802Z,100759.94
2018-11-01T22:58:45.747Z,100756.06
2018-11-01T23:01:18.638Z,100758.38
2018-11-01T23:03:52.540Z,100758.15
2018-11-01T23:06:23.506Z,100761.80
2018-11-01T23:09:15.539Z,100759.53
2018-11-01T23:11:47.911Z,100767.42
2018-11-01T23:14:19.332Z,100764.09
2018-11-01T23:16:56.505Z,100766.45
2018-11-01T23:19:28.909Z,100767.16
2018-11-01T23:21:59.573Z,100774.23
2018-11-01T23:24:31.147Z,100772.02
2018-11-01T23:27:02.778Z,100769.89
2018-11-01T23:29:32.380Z,100764.76
2018-11-01T23:32:02.169Z,100770.59
2018-11-01T23:34:31.512Z,100779.55
2018-11-01T23:37:08.407Z,100778.50
2018-11-01T23:39:42.670Z,100777.80
2018-11-01T23:42:17.236Z,100783.80
2018-11-01T23:44:52.201Z,100791.75
2018-11-01T23:47:29.245Z,100790.77
2018-11-01T23:50:08.873Z,100789.94
2018-11-01T23:52:40.127Z,100794.15
2018-11-01T23:55:11.099Z,100806.12
2018-11-01T23:57:41.767Z,100799.59
